createdAt,value
2018-09-27T00:00:47.075Z,960.59
2018-09-27T00:01:46.991Z,960.54
2018-09-27T00:02:46.879Z,960.54
2018-09-27T00:03:46.784Z,960.57
2018-09-27T00:04:46.682Z,960.56
2018-09-27T00:05:46.583Z,960.54
2018-09-27T00:06:46.505Z,960.54
2018-09-27T00:07:46.391Z,960.53
2018-09-27T00:08:46.291Z,960.52
2018-09-27T00:09:46.195Z,960.54
2018-09-27T00:10:46.099Z,960.57
2018-09-27T00:11:46.021Z,960.50
2018-09-27T00:12:45.899Z,960.54
2018-09-27T00:13:45.804Z,960.54
2018-09-27T00:14:45.711Z,960.50
2018-09-27T00:15:45.607Z,960.53
2018-09-27T00:16:45.511Z,960.53
2018-09-27T00:17:45.431Z,960.49
2018-09-27T00:18:45.319Z,960.48
2018-09-27T00:19:45.218Z,960.45
2018-09-27T00:20:45.124Z,960.43
2018-09-27T00:21:45.023Z,960.44
2018-09-27T00:22:44.938Z,960.40
2018-09-27T00:23:44.826Z,960.47
2018-09-27T00:24:44.727Z,960.48
2018-09-27T00:25:44.629Z,960.42
2018-09-27T00:26:44.535Z,960.46
2018-09-27T00:27:44.453Z,960.44
2018-09-27T00:28:44.341Z,960.40
2018-09-27T00:29:44.240Z,960.42
2018-09-27T00:30:44.141Z,960.39
2018-09-27T00:31:44.047Z,960.38
2018-09-27T00:32:43.962Z,960.32
2018-09-27T00:33:43.850Z,960.31
2018-09-27T00:34:43.754Z,960.27
2018-09-27T00:35:43.654Z,960.30
2018-09-27T00:36:43.556Z,960.30
2018-09-27T00:37:43.477Z,960.29
2018-09-27T00:38:43.361Z,960.31
2018-09-27T00:39:43.263Z,960.32
2018-09-27T00:40:43.165Z,960.29
2018-09-27T00:41:43.066Z,960.34
2018-09-27T00:42:42.993Z,960.33
2018-09-27T00:43:42.873Z,960.28
2018-09-27T00:44:42.777Z,960.28
2018-09-27T00:45:42.679Z,960.32
2018-09-27T00:46:42.579Z,960.26
2018-09-27T00:47:42.497Z,960.29
2018-09-27T00:48:42.383Z,960.27
2018-09-27T00:49:42.289Z,960.30
2018-09-27T00:50:42.188Z,960.32
2018-09-27T00:51:42.089Z,960.30
2018-09-27T00:52:42.012Z,960.34
2018-09-27T00:53:41.900Z,960.34
2018-09-27T00:54:41.796Z,960.35
2018-09-27T00:55:41.699Z,960.33
2018-09-27T00:56:41.598Z,960.34
2018-09-27T00:57:41.519Z,960.36
2018-09-27T00:58:41.405Z,960.36
2018-09-27T00:59:41.306Z,960.36
2018-09-27T01:00:41.209Z,960.35
2018-09-27T01:01:41.112Z,960.35
2018-09-27T01:02:41.029Z,960.36
2018-09-27T01:03:40.929Z,960.28
2018-09-27T01:04:40.915Z,960.33
2018-09-27T01:05:40.719Z,960.28
2018-09-27T01:06:40.624Z,960.31
2018-09-27T01:07:40.537Z,960.30
2018-09-27T01:08:40.439Z,960.30
2018-09-27T01:09:40.329Z,960.27
2018-09-27T01:10:40.232Z,960.30
2018-09-27T01:11:40.236Z,960.28
2018-09-27T01:12:40.050Z,960.25
2018-09-27T01:13:39.936Z,960.26
2018-09-27T01:14:39.838Z,960.19
2018-09-27T01:15:39.738Z,960.18
2018-09-27T01:16:39.643Z,960.18
2018-09-27T01:17:39.562Z,960.16
2018-09-27T01:18:39.554Z,960.15
2018-09-27T01:19:39.348Z,960.18
2018-09-27T01:20:39.249Z,960.17
2018-09-27T01:21:39.156Z,960.10
2018-09-27T01:22:39.072Z,960.12
2018-09-27T01:23:38.959Z,960.11
2018-09-27T01:24:38.861Z,960.06
2018-09-27T01:25:38.858Z,960.01
2018-09-27T01:26:38.665Z,960.00
2018-09-27T01:27:38.583Z,960.01
2018-09-27T01:28:38.470Z,960.01
2018-09-27T01:29:38.370Z,959.96
2018-09-27T01:30:38.271Z,959.96
2018-09-27T01:31:38.172Z,960.01
2018-09-27T01:32:38.215Z,959.98
2018-09-27T01:33:37.976Z,959.99
2018-09-27T01:34:37.880Z,959.97
2018-09-27T01:35:37.779Z,959.93
2018-09-27T01:36:37.682Z,959.94
2018-09-27T01:37:37.605Z,959.93
2018-09-27T01:38:37.488Z,959.90
2018-09-27T01:39:37.484Z,959.88
2018-09-27T01:40:37.288Z,959.92
2018-09-27T01:41:37.196Z,959.90
2018-09-27T01:42:37.112Z,959.87
2018-09-27T01:43:36.996Z,959.89
2018-09-27T01:44:36.895Z,959.91
2018-09-27T01:45:36.801Z,959.90
2018-09-27T01:46:36.803Z,959.93
2018-09-27T01:47:36.622Z,959.89
2018-09-27T01:48:36.505Z,959.88
2018-09-27T01:49:36.430Z,959.88
2018-09-27T01:50:36.339Z,959.85
2018-09-27T01:51:36.211Z,959.82
2018-09-27T01:52:36.128Z,959.78
2018-09-27T01:53:36.117Z,959.75
2018-09-27T01:54:35.919Z,959.76
2018-09-27T01:55:35.822Z,959.77
2018-09-27T01:56:35.722Z,959.82
2018-09-27T01:57:35.641Z,959.85
2018-09-27T01:58:35.526Z,959.87
2018-09-27T01:59:35.425Z,959.86
2018-09-27T02:00:35.431Z,959.83
2018-09-27T02:01:35.237Z,959.77
2018-09-27T02:02:35.132Z,959.80
2018-09-27T02:03:35.053Z,959.77
2018-09-27T02:04:34.939Z,959.77
2018-09-27T02:05:34.836Z,959.78
2018-09-27T02:06:34.743Z,959.80
2018-09-27T02:07:34.744Z,959.79
2018-09-27T02:08:34.561Z,959.78
2018-09-27T02:09:34.450Z,959.80
2018-09-27T02:10:34.349Z,959.80
2018-09-27T02:11:34.253Z,959.82
2018-09-27T02:12:34.153Z,959.75
2018-09-27T02:13:34.069Z,959.73
2018-09-27T02:14:34.055Z,959.75
2018-09-27T02:15:33.854Z,959.72
2018-09-27T02:16:33.759Z,959.75
2018-09-27T02:17:33.661Z,959.73
2018-09-27T02:18:33.578Z,959.71
2018-09-27T02:19:33.465Z,959.70
2018-09-27T02:20:33.368Z,959.71
2018-09-27T02:21:33.268Z,959.69
2018-09-27T02:22:33.182Z,959.67
2018-09-27T02:23:33.086Z,959.67
2018-09-27T02:24:32.975Z,959.64
2018-09-27T02:25:32.876Z,959.62
2018-09-27T02:26:32.780Z,959.64
2018-09-27T02:27:32.676Z,959.69
2018-09-27T02:28:32.598Z,959.68
2018-09-27T02:29:32.482Z,959.62
2018-09-27T02:30:32.381Z,959.63
2018-09-27T02:31:32.286Z,959.65
2018-09-27T02:32:32.197Z,959.63
2018-09-27T02:33:32.111Z,959.64
2018-09-27T02:34:31.993Z,959.63
2018-09-27T02:35:31.895Z,959.69
2018-09-27T02:36:31.790Z,959.66
2018-09-27T02:37:31.699Z,959.65
2018-09-27T02:38:31.612Z,959.66
2018-09-27T02:39:31.497Z,959.64
2018-09-27T02:40:31.401Z,959.63
2018-09-27T02:41:31.303Z,959.57
2018-09-27T02:42:31.203Z,959.58
2018-09-27T02:43:31.122Z,959.54
2018-09-27T02:44:31.008Z,959.54
2018-09-27T02:45:30.909Z,959.52
2018-09-27T02:46:30.818Z,959.51
2018-09-27T02:47:30.712Z,959.53
2018-09-27T02:48:30.640Z,959.49
2018-09-27T02:49:30.518Z,959.50
2018-09-27T02:50:30.418Z,959.48
2018-09-27T02:51:30.321Z,959.54
2018-09-27T02:52:30.224Z,959.54
2018-09-27T02:53:30.140Z,959.51
2018-09-27T02:54:30.027Z,959.55
2018-09-27T02:55:29.932Z,959.51
2018-09-27T02:56:29.832Z,959.54
2018-09-27T02:57:29.734Z,959.53
2018-09-27T02:58:29.655Z,959.53
2018-09-27T02:59:29.537Z,959.54
2018-09-27T03:00:29.438Z,959.53
2018-09-27T03:01:29.342Z,959.51
2018-09-27T03:02:29.245Z,959.53
2018-09-27T03:03:29.159Z,959.48
2018-09-27T03:04:29.047Z,959.52
2018-09-27T03:05:28.950Z,959.45
2018-09-27T03:06:28.852Z,959.47
2018-09-27T03:07:28.752Z,959.46
2018-09-27T03:08:28.673Z,959.46
2018-09-27T03:09:28.559Z,959.44
2018-09-27T03:10:28.458Z,959.45
2018-09-27T03:11:28.359Z,959.41
2018-09-27T03:12:28.262Z,959.45
2018-09-27T03:13:28.180Z,959.46
2018-09-27T03:14:28.066Z,959.45
2018-09-27T03:15:27.967Z,959.45
2018-09-27T03:16:27.870Z,959.44
2018-09-27T03:17:27.776Z,959.44
2018-09-27T03:18:27.689Z,959.44
2018-09-27T03:19:27.577Z,959.47
2018-09-27T03:20:27.477Z,959.45
2018-09-27T03:21:27.379Z,959.46
2018-09-27T03:22:27.294Z,959.46
2018-09-27T03:23:27.200Z,959.45
2018-09-27T03:24:27.085Z,959.41
2018-09-27T03:25:26.991Z,959.40
2018-09-27T03:26:26.888Z,959.41
2018-09-27T03:27:26.793Z,959.41
2018-09-27T03:28:26.709Z,959.39
2018-09-27T03:29:26.597Z,959.41
2018-09-27T03:30:26.498Z,959.39
2018-09-27T03:31:26.401Z,959.43
2018-09-27T03:32:26.309Z,959.38
2018-09-27T03:33:26.219Z,959.41
2018-09-27T03:34:26.107Z,959.40
2018-09-27T03:35:26.012Z,959.39
2018-09-27T03:36:25.907Z,959.42
2018-09-27T03:37:25.811Z,959.42
2018-09-27T03:38:25.739Z,959.40
2018-09-27T03:39:25.620Z,959.42
2018-09-27T03:40:25.520Z,959.42
2018-09-27T03:41:25.419Z,959.41
2018-09-27T03:42:25.321Z,959.42
2018-09-27T03:43:25.242Z,959.40
2018-09-27T03:44:25.229Z,959.42
2018-09-27T03:45:25.026Z,959.41
2018-09-27T03:46:24.927Z,959.42
2018-09-27T03:47:24.830Z,959.41
2018-09-27T03:48:24.734Z,959.38
2018-09-27T03:49:24.675Z,959.35
2018-09-27T03:50:24.536Z,959.36
2018-09-27T03:51:24.490Z,959.35
2018-09-27T03:52:24.342Z,959.36
2018-09-27T03:53:24.244Z,959.37
2018-09-27T03:54:24.160Z,959.39
2018-09-27T03:55:24.049Z,959.39
2018-09-27T03:56:23.946Z,959.36
2018-09-27T03:57:23.850Z,959.39
2018-09-27T03:58:23.757Z,959.37
2018-09-27T03:59:23.694Z,959.42
2018-09-27T04:00:23.554Z,959.38
2018-09-27T04:01:23.458Z,959.41
2018-09-27T04:02:23.359Z,959.40
2018-09-27T04:03:23.363Z,959.43
2018-09-27T04:04:23.180Z,959.42
2018-09-27T04:05:23.067Z,959.43
2018-09-27T04:06:22.966Z,959.41
2018-09-27T04:07:22.869Z,959.45
2018-09-27T04:08:22.776Z,959.44
2018-09-27T04:09:22.691Z,959.42
2018-09-27T04:10:22.577Z,959.39
2018-09-27T04:11:22.477Z,959.35
2018-09-27T04:12:22.378Z,959.32
2018-09-27T04:13:22.279Z,959.39
2018-09-27T04:14:22.202Z,959.38
2018-09-27T04:15:22.085Z,959.37
2018-09-27T04:16:21.987Z,959.34
2018-09-27T04:17:21.892Z,959.35
2018-09-27T04:18:22.492Z,959.36
2018-09-27T04:19:21.711Z,959.38
2018-09-27T04:20:21.596Z,959.37
2018-09-27T04:21:21.495Z,959.37
2018-09-27T04:22:21.399Z,959.37
2018-09-27T04:23:21.301Z,959.33
2018-09-27T04:24:21.220Z,959.34
2018-09-27T04:25:21.109Z,959.32
2018-09-27T04:26:21.006Z,959.29
2018-09-27T04:27:21.100Z,959.29
2018-09-27T04:28:20.812Z,959.28
2018-09-27T04:29:20.729Z,959.28
2018-09-27T04:30:20.616Z,959.29
2018-09-27T04:31:20.517Z,959.31
2018-09-27T04:32:20.419Z,959.28
2018-09-27T04:33:20.323Z,959.32
2018-09-27T04:34:20.345Z,959.29
2018-09-27T04:35:20.127Z,959.28
2018-09-27T04:36:20.028Z,959.29
2018-09-27T04:37:19.930Z,959.27
2018-09-27T04:38:19.832Z,959.26
2018-09-27T04:39:19.750Z,959.26
2018-09-27T04:40:19.633Z,959.26
2018-09-27T04:41:19.643Z,959.28
2018-09-27T04:42:19.437Z,959.27
2018-09-27T04:43:19.340Z,959.29
2018-09-27T04:44:19.257Z,959.30
2018-09-27T04:45:19.144Z,959.30
2018-09-27T04:46:19.051Z,959.28
2018-09-27T04:47:18.946Z,959.27
2018-09-27T04:48:18.958Z,959.27
2018-09-27T04:49:18.767Z,959.28
2018-09-27T04:50:18.653Z,959.29
2018-09-27T04:51:18.556Z,959.30
2018-09-27T04:52:18.458Z,959.26
2018-09-27T04:53:18.358Z,959.32
2018-09-27T04:54:18.326Z,959.33
2018-09-27T04:55:18.265Z,959.32
2018-09-27T04:56:18.063Z,959.32
2018-09-27T04:57:17.966Z,959.31
2018-09-27T04:58:17.874Z,959.33
2018-09-27T04:59:17.789Z,959.33
2018-09-27T05:00:17.681Z,959.33
2018-09-27T05:01:17.576Z,959.36
2018-09-27T05:02:17.580Z,959.32
2018-09-27T05:03:17.377Z,959.35
2018-09-27T05:04:17.296Z,959.36
2018-09-27T05:05:17.182Z,959.41
2018-09-27T05:06:17.089Z,959.44
2018-09-27T05:07:16.986Z,959.44
2018-09-27T05:08:16.886Z,959.44
2018-09-27T05:09:16.907Z,959.42
2018-09-27T05:10:16.691Z,959.44
2018-09-27T05:11:16.594Z,959.44
2018-09-27T05:12:16.494Z,959.45
2018-09-27T05:13:16.397Z,959.45
2018-09-27T05:14:16.313Z,959.42
2018-09-27T05:15:16.325Z,959.42
2018-09-27T05:16:16.103Z,959.42
2018-09-27T05:17:16.002Z,959.38
2018-09-27T05:18:15.910Z,959.35
2018-09-27T05:19:15.824Z,959.34
2018-09-27T05:20:15.710Z,959.36
2018-09-27T05:21:15.621Z,959.32
2018-09-27T05:22:15.614Z,959.27
2018-09-27T05:23:15.413Z,959.28
2018-09-27T05:24:15.335Z,959.30
2018-09-27T05:25:15.231Z,959.30
2018-09-27T05:26:15.121Z,959.32
2018-09-27T05:27:15.083Z,959.34
2018-09-27T05:28:14.923Z,959.34
2018-09-27T05:29:14.840Z,959.37
2018-09-27T05:30:14.728Z,959.40
2018-09-27T05:31:14.631Z,959.40
2018-09-27T05:32:14.532Z,959.45
2018-09-27T05:33:14.435Z,959.45
2018-09-27T05:34:14.336Z,959.45
2018-09-27T05:35:14.268Z,959.44
2018-09-27T05:36:14.141Z,959.43
2018-09-27T05:37:14.043Z,959.39
2018-09-27T05:38:13.944Z,959.39
2018-09-27T05:39:13.846Z,959.38
2018-09-27T05:40:13.764Z,959.40
2018-09-27T05:41:13.650Z,959.35
2018-09-27T05:42:13.554Z,959.37
2018-09-27T05:43:13.452Z,959.36
2018-09-27T05:44:13.356Z,959.32
2018-09-27T05:45:13.273Z,959.37
2018-09-27T05:46:13.160Z,959.35
2018-09-27T05:47:13.061Z,959.36
2018-09-27T05:48:12.964Z,959.36
2018-09-27T05:49:12.869Z,959.40
2018-09-27T05:50:12.786Z,959.42
2018-09-27T05:51:12.668Z,959.42
2018-09-27T05:52:12.570Z,959.48
2018-09-27T05:53:12.473Z,959.44
2018-09-27T05:54:12.377Z,959.50
2018-09-27T05:55:12.290Z,959.55
2018-09-27T05:56:12.178Z,959.55
2018-09-27T05:57:12.085Z,959.58
2018-09-27T05:58:11.986Z,959.57
2018-09-27T05:59:11.885Z,959.59
2018-09-27T06:00:11.803Z,959.60
2018-09-27T06:01:11.692Z,959.65
2018-09-27T06:02:11.603Z,959.64
2018-09-27T06:03:11.492Z,959.65
2018-09-27T06:04:11.395Z,959.68
2018-09-27T06:05:11.316Z,959.71
2018-09-27T06:06:11.203Z,959.70
2018-09-27T06:07:11.108Z,959.69
2018-09-27T06:08:11.011Z,959.73
2018-09-27T06:09:10.915Z,959.75
2018-09-27T06:10:10.840Z,959.78
2018-09-27T06:11:10.725Z,959.75
2018-09-27T06:12:10.629Z,959.79
2018-09-27T06:13:10.532Z,959.82
2018-09-27T06:14:10.439Z,959.85
2018-09-27T06:15:10.356Z,959.87
2018-09-27T06:16:10.246Z,959.87
2018-09-27T06:17:10.153Z,959.92
2018-09-27T06:18:10.058Z,959.90
2018-09-27T06:19:09.963Z,959.86
2018-09-27T06:20:09.887Z,959.88
2018-09-27T06:21:09.773Z,959.90
2018-09-27T06:22:09.682Z,959.94
2018-09-27T06:23:09.593Z,959.98
2018-09-27T06:24:09.498Z,959.96
2018-09-27T06:25:09.417Z,959.99
2018-09-27T06:26:09.378Z,960.01
2018-09-27T06:27:09.214Z,960.03
2018-09-27T06:28:09.120Z,960.03
2018-09-27T06:29:09.027Z,960.01
2018-09-27T06:30:08.947Z,960.06
2018-09-27T06:31:08.842Z,960.08
2018-09-27T06:32:08.854Z,960.11
2018-09-27T06:33:08.666Z,960.12
2018-09-27T06:34:08.571Z,960.10
2018-09-27T06:35:08.552Z,960.11
2018-09-27T06:36:08.384Z,960.14
2018-09-27T06:37:08.287Z,960.13
2018-09-27T06:38:08.197Z,960.12
2018-09-27T06:39:08.215Z,960.16
2018-09-27T06:40:08.028Z,960.17
2018-09-27T06:41:07.926Z,960.20
2018-09-27T06:42:07.832Z,960.17
2018-09-27T06:43:07.742Z,960.15
2018-09-27T06:44:07.666Z,960.20
2018-09-27T06:45:07.575Z,960.22
2018-09-27T06:46:07.575Z,960.22
2018-09-27T06:47:07.377Z,960.22
2018-09-27T06:48:07.338Z,960.26
2018-09-27T06:49:07.192Z,960.31
2018-09-27T06:50:07.129Z,960.32
2018-09-27T06:51:07.017Z,960.34
2018-09-27T06:52:06.928Z,960.38
2018-09-27T06:53:06.941Z,960.36
2018-09-27T06:54:06.789Z,960.44
2018-09-27T06:55:06.740Z,960.45
2018-09-27T06:56:06.624Z,960.47
2018-09-27T06:57:06.476Z,960.52
2018-09-27T06:58:06.393Z,960.54
2018-09-27T06:59:06.299Z,960.53
2018-09-27T07:00:06.342Z,960.54
2018-09-27T07:01:06.123Z,960.53
2018-09-27T07:02:06.032Z,960.57
2018-09-27T07:03:05.945Z,960.57
2018-09-27T07:04:05.855Z,960.62
2018-09-27T07:05:05.801Z,960.63
2018-09-27T07:06:05.682Z,960.69
2018-09-27T07:07:05.698Z,960.72
2018-09-27T07:08:05.498Z,960.73
2018-09-27T07:09:05.416Z,960.77
2018-09-27T07:10:05.341Z,960.77
2018-09-27T07:11:05.235Z,960.80
2018-09-27T07:12:05.196Z,960.84
2018-09-27T07:13:05.058Z,960.87
2018-09-27T07:14:05.077Z,960.90
2018-09-27T07:15:04.899Z,960.91
2018-09-27T07:16:04.794Z,960.97
2018-09-27T07:17:04.706Z,961.00
2018-09-27T07:18:04.621Z,960.99
2018-09-27T07:19:04.540Z,961.00
2018-09-27T07:20:04.446Z,961.01
2018-09-27T07:21:04.478Z,961.08
2018-09-27T07:22:04.275Z,961.24
2018-09-27T07:23:04.182Z,961.31
2018-09-27T07:24:04.095Z,961.43
2018-09-27T07:25:04.051Z,961.41
2018-09-27T07:26:03.936Z,961.32
2018-09-27T07:27:04.030Z,961.25
2018-09-27T07:28:03.748Z,961.17
2018-09-27T07:29:03.664Z,961.12
2018-09-27T07:30:03.576Z,961.05
2018-09-27T07:31:03.546Z,961.08
2018-09-27T07:32:03.399Z,961.04
2018-09-27T07:33:03.315Z,961.06
2018-09-27T07:34:03.228Z,961.04
2018-09-27T07:35:03.255Z,960.99
2018-09-27T07:36:03.073Z,960.99
2018-09-27T07:37:02.970Z,960.97
2018-09-27T07:38:02.903Z,960.98
2018-09-27T07:39:02.797Z,960.96
2018-09-27T07:40:02.714Z,960.97
2018-09-27T07:41:02.751Z,960.96
2018-09-27T07:42:02.543Z,960.96
2018-09-27T07:43:02.462Z,961.18
2018-09-27T07:44:02.374Z,961.49
2018-09-27T07:45:02.288Z,961.38
2018-09-27T07:46:02.230Z,961.29
2018-09-27T07:47:02.120Z,961.22
2018-09-27T07:48:02.031Z,961.08
2018-09-27T07:49:01.949Z,961.07
2018-09-27T07:50:01.865Z,961.08
2018-09-27T07:51:01.795Z,961.14
2018-09-27T07:52:01.699Z,961.12
2018-09-27T07:53:01.618Z,961.24
2018-09-27T07:54:01.529Z,961.55
2018-09-27T07:55:01.447Z,962.10
2018-09-27T07:56:01.374Z,962.61
2018-09-27T07:57:01.276Z,962.47
2018-09-27T07:58:01.196Z,961.75
2018-09-27T07:59:01.111Z,961.23
2018-09-27T08:00:01.045Z,961.21
2018-09-27T08:01:00.971Z,961.08
2018-09-27T08:02:00.859Z,960.98
2018-09-27T08:03:00.888Z,960.91
2018-09-27T08:04:00.732Z,960.85
2018-09-27T08:05:00.609Z,960.72
2018-09-27T08:06:00.542Z,960.71
2018-09-27T08:07:00.445Z,960.70
2018-09-27T08:08:00.362Z,960.70
2018-09-27T08:09:00.284Z,960.68
2018-09-27T08:10:00.198Z,960.67
2018-09-27T08:11:00.173Z,960.66
2018-09-27T08:12:00.095Z,960.68
2018-09-27T08:12:59.949Z,960.67
2018-09-27T08:13:59.865Z,960.66
2018-09-27T08:14:59.782Z,960.68
2018-09-27T08:15:59.718Z,960.69
2018-09-27T08:16:59.655Z,960.66
2018-09-27T08:17:59.537Z,960.67
2018-09-27T08:18:59.454Z,960.67
2018-09-27T08:19:59.371Z,960.69
2018-09-27T08:20:59.408Z,960.70
2018-09-27T08:21:59.209Z,960.67
2018-09-27T08:22:59.121Z,960.69
2018-09-27T08:23:59.097Z,960.64
2018-09-27T08:24:58.962Z,960.65
2018-09-27T08:25:58.894Z,960.64
2018-09-27T08:26:58.795Z,960.63
2018-09-27T08:27:58.713Z,960.67
2018-09-27T08:28:58.634Z,960.63
2018-09-27T08:29:58.554Z,960.63
2018-09-27T08:30:58.581Z,960.65
2018-09-27T08:31:58.387Z,960.65
2018-09-27T08:32:58.303Z,960.66
2018-09-27T08:33:58.222Z,960.63
2018-09-27T08:34:58.139Z,960.65
2018-09-27T08:35:58.074Z,960.66
2018-09-27T08:36:57.976Z,960.64
2018-09-27T08:37:57.895Z,960.59
2018-09-27T08:38:57.813Z,960.61
2018-09-27T08:39:57.729Z,960.56
2018-09-27T08:40:57.667Z,960.57
2018-09-27T08:41:57.563Z,960.58
2018-09-27T08:42:57.483Z,960.54
2018-09-27T08:43:57.507Z,960.56
2018-09-27T08:44:57.481Z,960.55
2018-09-27T08:45:57.303Z,960.55
2018-09-27T08:46:57.157Z,960.52
2018-09-27T08:47:57.076Z,960.55
2018-09-27T08:48:56.995Z,960.51
2018-09-27T08:49:56.912Z,960.51
2018-09-27T08:50:56.850Z,960.52
2018-09-27T08:51:56.752Z,960.50
2018-09-27T08:52:56.666Z,960.50
2018-09-27T08:53:56.587Z,960.55
2018-09-27T08:54:56.504Z,960.56
2018-09-27T08:55:56.514Z,960.56
2018-09-27T08:56:56.344Z,960.58
2018-09-27T08:57:56.372Z,960.55
2018-09-27T08:58:56.179Z,960.55
2018-09-27T08:59:56.099Z,960.53
2018-09-27T09:00:56.034Z,960.51
2018-09-27T09:01:55.939Z,960.48
2018-09-27T09:02:55.863Z,960.43
2018-09-27T09:03:55.808Z,960.40
2018-09-27T09:04:55.807Z,960.41
2018-09-27T09:05:55.628Z,960.57
2018-09-27T09:06:55.533Z,960.61
2018-09-27T09:07:55.453Z,960.68
2018-09-27T09:08:55.370Z,960.76
2018-09-27T09:09:55.288Z,960.67
2018-09-27T09:10:55.210Z,960.62
2018-09-27T09:11:55.154Z,960.61
2018-09-27T09:12:55.048Z,960.65
2018-09-27T09:13:54.969Z,960.60
2018-09-27T09:14:54.886Z,960.62
2018-09-27T09:15:54.810Z,960.70
2018-09-27T09:16:54.743Z,960.76
2018-09-27T09:17:54.648Z,960.53
2018-09-27T09:18:54.685Z,960.56
2018-09-27T09:19:54.484Z,960.48
2018-09-27T09:20:54.406Z,960.46
2018-09-27T09:21:54.342Z,960.56
2018-09-27T09:22:54.241Z,960.53
2018-09-27T09:23:54.164Z,960.43
2018-09-27T09:24:54.081Z,960.43
2018-09-27T09:25:54.126Z,960.50
2018-09-27T09:26:53.941Z,960.37
2018-09-27T09:27:53.846Z,960.44
2018-09-27T09:28:53.756Z,960.55
2018-09-27T09:29:53.723Z,960.51
2018-09-27T09:30:53.596Z,960.46
2018-09-27T09:31:53.538Z,960.44
2018-09-27T09:32:53.436Z,960.46
2018-09-27T09:33:53.357Z,960.51
2018-09-27T09:34:53.274Z,960.46
2018-09-27T09:35:53.208Z,960.42
2018-09-27T09:36:53.125Z,960.41
2018-09-27T09:37:53.028Z,960.45
2018-09-27T09:38:52.945Z,960.47
2018-09-27T09:39:52.864Z,960.40
2018-09-27T09:40:52.784Z,960.34
2018-09-27T09:41:52.720Z,960.30
2018-09-27T09:42:52.621Z,960.25
2018-09-27T09:43:52.539Z,960.21
2018-09-27T09:44:52.456Z,960.16
2018-09-27T09:45:52.378Z,960.08
2018-09-27T09:46:52.309Z,960.06
2018-09-27T09:47:52.212Z,960.09
2018-09-27T09:48:52.132Z,960.10
2018-09-27T09:49:52.051Z,960.09
2018-09-27T09:50:51.964Z,960.10
2018-09-27T09:51:51.901Z,960.07
2018-09-27T09:52:51.802Z,960.12
2018-09-27T09:53:51.718Z,960.14
2018-09-27T09:54:51.638Z,960.11
2018-09-27T09:55:51.554Z,960.04
2018-09-27T09:56:51.487Z,960.06
2018-09-27T09:57:51.389Z,960.11
2018-09-27T09:58:51.303Z,960.19
2018-09-27T09:59:51.221Z,960.19
2018-09-27T10:00:51.141Z,960.12
2018-09-27T10:01:51.175Z,960.01
2018-09-27T10:02:50.974Z,959.98
2018-09-27T10:03:50.889Z,960.05
2018-09-27T10:04:50.808Z,960.06
2018-09-27T10:05:50.723Z,960.06
2018-09-27T10:06:50.654Z,960.05
2018-09-27T10:07:50.560Z,960.07
2018-09-27T10:08:50.603Z,960.11
2018-09-27T10:09:50.394Z,960.16
2018-09-27T10:10:50.310Z,960.15
2018-09-27T10:11:50.247Z,960.13
2018-09-27T10:12:50.149Z,960.10
2018-09-27T10:13:50.068Z,960.00
2018-09-27T10:14:49.984Z,960.02
2018-09-27T10:15:50.011Z,960.20
2018-09-27T10:16:49.842Z,960.07
2018-09-27T10:17:49.743Z,960.02
2018-09-27T10:18:49.664Z,960.14
2018-09-27T10:19:49.580Z,960.23
2018-09-27T10:20:49.497Z,960.19
2018-09-27T10:21:49.491Z,960.16
2018-09-27T10:22:49.436Z,960.11
2018-09-27T10:23:49.258Z,960.07
2018-09-27T10:24:49.176Z,960.05
2018-09-27T10:25:49.097Z,959.89
2018-09-27T10:26:49.029Z,959.92
2018-09-27T10:27:48.952Z,959.95
2018-09-27T10:28:48.859Z,959.85
2018-09-27T10:29:48.895Z,959.81
2018-09-27T10:30:48.694Z,959.84
2018-09-27T10:31:48.629Z,959.73
2018-09-27T10:32:48.533Z,959.96
2018-09-27T10:33:48.454Z,960.07
2018-09-27T10:34:48.374Z,959.92
2018-09-27T10:35:48.292Z,959.83
2018-09-27T10:36:48.229Z,959.60
2018-09-27T10:37:48.132Z,959.59
2018-09-27T10:38:48.048Z,959.77
2018-09-27T10:39:47.967Z,959.64
2018-09-27T10:40:47.888Z,959.66
2018-09-27T10:41:47.833Z,959.63
2018-09-27T10:42:47.727Z,959.70
2018-09-27T10:43:47.644Z,959.78
2018-09-27T10:44:47.576Z,959.64
2018-09-27T10:45:47.483Z,959.80
2018-09-27T10:46:47.418Z,959.76
2018-09-27T10:47:47.324Z,959.66
2018-09-27T10:48:47.240Z,959.65
2018-09-27T10:49:47.162Z,960.17
2018-09-27T10:50:47.078Z,960.35
2018-09-27T10:51:47.016Z,960.68
2018-09-27T10:52:46.915Z,960.82
2018-09-27T10:53:46.839Z,960.62
2018-09-27T10:54:46.761Z,960.61
2018-09-27T10:55:46.674Z,960.66
2018-09-27T10:56:46.594Z,960.62
2018-09-27T10:57:46.530Z,960.59
2018-09-27T10:58:46.433Z,960.65
2018-09-27T10:59:46.413Z,960.36
2018-09-27T11:00:46.270Z,960.36
2018-09-27T11:01:46.194Z,960.54
2018-09-27T11:02:46.124Z,960.46
2018-09-27T11:03:46.029Z,960.37
2018-09-27T11:04:45.954Z,960.32
2018-09-27T11:05:45.905Z,960.34
2018-09-27T11:06:45.793Z,960.39
2018-09-27T11:07:45.726Z,960.31
2018-09-27T11:08:45.629Z,960.14
2018-09-27T11:09:45.549Z,960.18
2018-09-27T11:10:45.467Z,960.19
2018-09-27T11:11:45.392Z,960.18
2018-09-27T11:12:45.327Z,960.06
2018-09-27T11:13:45.233Z,960.08
2018-09-27T11:14:45.155Z,960.02
2018-09-27T11:15:45.075Z,959.94
2018-09-27T11:16:45.086Z,959.87
2018-09-27T11:17:44.930Z,959.87
2018-09-27T11:18:44.833Z,959.98
2018-09-27T11:19:44.755Z,959.99
2018-09-27T11:20:44.675Z,959.87
2018-09-27T11:21:44.596Z,959.93
2018-09-27T11:22:44.537Z,959.92
2018-09-27T11:23:44.441Z,959.80
2018-09-27T11:24:44.359Z,959.76
2018-09-27T11:25:44.280Z,959.64
2018-09-27T11:26:44.198Z,959.57
2018-09-27T11:27:44.504Z,959.48
2018-09-27T11:28:44.041Z,959.42
2018-09-27T11:29:43.959Z,959.45
2018-09-27T11:30:43.884Z,959.39
2018-09-27T11:31:43.802Z,959.36
2018-09-27T11:32:43.738Z,959.27
2018-09-27T11:33:43.644Z,959.30
2018-09-27T11:34:43.569Z,959.41
2018-09-27T11:35:43.494Z,959.30
2018-09-27T11:36:43.407Z,959.20
2018-09-27T11:37:43.341Z,959.17
2018-09-27T11:38:43.374Z,959.16
2018-09-27T11:39:43.172Z,959.13
2018-09-27T11:40:43.090Z,959.07
2018-09-27T11:41:43.011Z,958.99
2018-09-27T11:42:42.977Z,959.11
2018-09-27T11:43:42.852Z,959.03
2018-09-27T11:44:42.773Z,959.04
2018-09-27T11:45:42.802Z,958.96
2018-09-27T11:46:42.614Z,958.95
2018-09-27T11:47:42.552Z,958.95
2018-09-27T11:48:42.459Z,958.86
2018-09-27T11:49:42.528Z,958.83
2018-09-27T11:50:42.296Z,958.80
2018-09-27T11:51:42.217Z,958.75
2018-09-27T11:52:42.256Z,958.68
2018-09-27T11:53:42.060Z,958.62
2018-09-27T11:54:41.983Z,958.63
2018-09-27T11:55:41.901Z,958.60
2018-09-27T11:56:41.823Z,958.60
2018-09-27T11:57:41.763Z,958.58
2018-09-27T11:58:41.666Z,958.56
2018-09-27T11:59:41.686Z,958.54
2018-09-27T12:00:41.521Z,958.52
2018-09-27T12:01:41.446Z,958.50
2018-09-27T12:02:41.368Z,958.51
2018-09-27T12:03:41.268Z,958.42
2018-09-27T12:04:41.188Z,958.47
2018-09-27T12:05:41.112Z,958.44
2018-09-27T12:06:41.173Z,958.43
2018-09-27T12:07:41.032Z,958.39
2018-09-27T12:08:40.874Z,958.39
2018-09-27T12:09:40.795Z,958.38
2018-09-27T12:10:40.715Z,958.35
2018-09-27T12:11:40.641Z,958.36
2018-09-27T12:12:40.574Z,958.36
2018-09-27T12:13:40.585Z,958.32
2018-09-27T12:14:40.457Z,958.26
2018-09-27T12:15:40.318Z,958.25
2018-09-27T12:16:40.246Z,958.26
2018-09-27T12:17:40.209Z,958.23
2018-09-27T12:18:40.079Z,958.24
2018-09-27T12:19:40.043Z,958.23
2018-09-27T12:20:40.025Z,958.15
2018-09-27T12:21:39.838Z,958.20
2018-09-27T12:22:39.775Z,958.26
2018-09-27T12:23:39.679Z,958.28
2018-09-27T12:24:39.601Z,958.23
2018-09-27T12:25:39.548Z,958.24
2018-09-27T12:26:39.439Z,958.20
2018-09-27T12:27:39.483Z,958.17